Time;durP1;ratioP1;P1;durP2;ratioP2;P2;SDS_P1;SDS_P2;PMS_P1;PMS_P2;Temp;Humidity;BMP_temperature;BMP_pressure;BME280_temperature;BME280_humidity;BME280_pressure;Samples;Min_cycle;Max_cycle;Signal;HPM_P1;HPM_P2
2022/03/25 00:01:11;;;;;;;50.22;24.42;;;5.50;99.90;;;;;;5073255;28;20048;-84
2022/03/25 00:03:37;;;;;;;40.00;22.20;;;5.40;99.90;;;;;;5081587;28;20047;-84
2022/03/25 00:06:04;;;;;;;49.00;24.23;;;5.20;99.90;;;;;;5086317;28;20510;-83
2022/03/25 00:08:30;;;;;;;35.97;20.95;;;5.10;99.90;;;;;;5087913;28;20333;-84
2022/03/25 00:10:57;;;;;;;46.00;21.88;;;5.00;99.90;;;;;;5076331;28;20080;-83
2022/03/25 00:13:23;;;;;;;43.87;23.67;;;5.50;99.90;;;;;;5078306;28;20048;-84
2022/03/25 00:15:48;;;;;;;44.73;25.47;;;4.90;99.90;;;;;;5054612;28;20045;-84
2022/03/25 00:18:14;;;;;;;35.08;22.05;;;4.90;99.90;;;;;;5077797;28;20286;-84
2022/03/25 00:20:41;;;;;;;42.13;22.67;;;4.90;99.90;;;;;;5071315;28;20052;-84
2022/03/25 00:23:06;;;;;;;36.35;20.73;;;4.80;99.90;;;;;;5076276;28;20055;-83
2022/03/25 00:25:32;;;;;;;35.40;21.13;;;5.60;99.90;;;;;;5077910;28;20397;-83
2022/03/25 00:27:58;;;;;;;46.72;22.38;;;5.20;99.90;;;;;;5071471;28;20052;-84
2022/03/25 00:30:23;;;;;;;39.63;25.20;;;4.90;99.90;;;;;;5075695;28;20147;-84
2022/03/25 00:32:49;;;;;;;44.90;22.70;;;4.70;99.90;;;;;;5079420;28;20182;-84
2022/03/25 00:35:17;;;;;;;35.85;21.85;;;4.40;99.90;;;;;;5065265;28;20483;-84
2022/03/25 00:37:43;;;;;;;44.95;25.05;;;4.70;99.90;;;;;;5071746;28;20046;-84
2022/03/25 00:40:09;;;;;;;44.33;22.45;;;4.30;99.90;;;;;;5064336;28;20123;-83
2022/03/25 00:42:35;;;;;;;32.63;21.02;;;4.20;99.90;;;;;;5086667;28;20065;-84
2022/03/25 00:45:05;;;;;;;32.50;19.77;;;5.00;99.90;;;;;;5070409;28;20044;-84
2022/03/25 00:47:31;;;;;;;34.33;19.15;;;4.20;99.90;;;;;;5071492;28;20056;-84
2022/03/25 00:49:57;;;;;;;33.00;20.63;;;4.20;99.90;;;;;;5085031;28;20043;-84
2022/03/25 00:52:23;;;;;;;41.55;19.95;;;4.20;99.90;;;;;;5081038;28;20051;-84
2022/03/25 00:54:50;;;;;;;40.45;21.73;;;4.30;99.90;;;;;;5076023;28;20040;-84
2022/03/25 00:57:16;;;;;;;;;;;4.30;99.90;;;;;;5085078;28;20072;-83
2022/03/25 00:59:42;;;;;;;32.92;19.38;;;4.40;99.90;;;;;;5071383;28;19920;-84
2022/03/25 01:02:08;;;;;;;34.88;18.65;;;4.40;99.90;;;;;;5079508;28;20421;-82
2022/03/25 01:04:34;;;;;;;29.70;17.85;;;5.20;99.90;;;;;;5058208;28;20071;-84
2022/03/25 01:07:00;;;;;;;32.33;18.90;;;5.20;99.90;;;;;;5072749;28;20041;-83
2022/03/25 01:09:26;;;;;;;38.57;19.17;;;4.50;99.90;;;;;;5056443;28;20048;-84
2022/03/25 01:11:52;;;;;;;30.38;20.67;;;4.40;99.90;;;;;;5082760;28;20078;-84
2022/03/25 01:14:18;;;;;;;32.20;19.35;;;4.30;99.90;;;;;;5088819;28;20132;-84
2022/03/25 01:16:43;;;;;;;40.97;21.57;;;4.40;99.90;;;;;;5086759;28;20475;-84
2022/03/25 01:19:10;;;;;;;41.90;19.15;;;4.30;99.90;;;;;;5074743;28;20041;-81
2022/03/25 01:21:36;;;;;;;32.60;20.90;;;3.40;99.90;;;;;;5098237;28;20041;-84
2022/03/25 01:24:02;;;;;;;40.28;21.27;;;4.40;99.90;;;;;;5074929;28;20471;-84
2022/03/25 01:26:28;;;;;;;37.10;21.48;;;4.20;99.90;;;;;;5056358;28;20048;-84
2022/03/25 01:28:54;;;;;;;80.17;26.17;;;4.20;99.90;;;;;;5086963;28;20080;-84
2022/03/25 01:31:20;;;;;;;69.80;27.50;;;4.10;99.90;;;;;;5074189;28;20102;-84
2022/03/25 01:33:46;;;;;;;126.80;30.33;;;4.20;99.90;;;;;;5071942;28;20170;-84
2022/03/25 01:36:12;;;;;;;80.72;28.25;;;3.90;99.90;;;;;;5083248;28;20078;-82
2022/03/25 01:38:39;;;;;;;112.78;27.35;;;3.80;99.90;;;;;;5059936;28;20048;-84
2022/03/25 01:41:05;;;;;;;68.47;24.88;;;3.80;99.90;;;;;;5063374;28;20513;-84
2022/03/25 01:43:31;;;;;;;45.95;19.45;;;3.80;99.90;;;;;;5083013;28;20052;-84
2022/03/25 01:45:57;;;;;;;78.22;24.45;;;3.80;99.90;;;;;;5057978;28;20041;-84
2022/03/25 01:48:23;;;;;;;50.58;21.73;;;4.20;99.90;;;;;;5063896;28;20390;-83
2022/03/25 01:50:48;;;;;;;77.37;26.10;;;3.80;99.90;;;;;;5086743;28;20553;-84
2022/03/25 01:53:23;;;;;;;74.47;24.70;;;3.80;99.90;;;;;;5092089;28;20048;-82
2022/03/25 01:55:56;;;;;;;73.03;24.30;;;3.80;99.90;;;;;;5075156;28;20068;-84
2022/03/25 01:58:24;;;;;;;82.57;23.30;;;3.80;99.90;;;;;;5081146;28;20059;-83
2022/03/25 02:00:50;;;;;;;100.32;24.65;;;3.80;99.90;;;;;;5079932;28;20036;-84
2022/03/25 02:03:17;;;;;;;99.53;23.98;;;3.70;99.90;;;;;;5072480;28;20076;-82
2022/03/25 02:05:47;;;;;;;98.00;25.35;;;3.60;99.90;;;;;;5073308;28;20044;-84
2022/03/25 02:08:13;;;;;;;63.92;22.58;;;3.60;99.90;;;;;;5068814;28;20135;-84
2022/03/25 02:10:40;;;;;;;59.33;21.20;;;3.50;99.90;;;;;;5047442;28;20131;-83
2022/03/25 02:13:08;;;;;;;83.40;25.95;;;3.50;99.90;;;;;;5068120;28;20552;-84
2022/03/25 02:15:38;;;;;;;90.93;23.70;;;3.50;99.90;;;;;;5081646;28;20087;-83
2022/03/25 02:18:06;;;;;;;63.80;20.70;;;3.60;99.90;;;;;;5079321;28;20049;-84
2022/03/25 02:20:34;;;;;;;111.43;27.15;;;3.60;99.90;;;;;;5076541;28;20125;-84
2022/03/25 02:23:00;;;;;;;149.20;32.70;;;3.50;99.90;;;;;;5072555;28;20048;-84
2022/03/25 02:25:26;;;;;;;79.72;24.05;;;3.50;99.90;;;;;;5067445;28;20040;-83
2022/03/25 02:27:53;;;;;;;94.60;24.98;;;3.50;99.90;;;;;;5088437;28;20052;-84
2022/03/25 02:30:20;;;;;;;60.22;22.08;;;3.50;99.90;;;;;;5054789;28;20040;-82
2022/03/25 02:32:46;;;;;;;76.03;23.08;;;3.40;99.90;;;;;;5078175;28;20044;-84
2022/03/25 02:35:11;;;;;;;75.87;23.70;;;3.40;99.90;;;;;;5071011;28;20076;-84
2022/03/25 02:37:37;;;;;;;91.30;23.40;;;3.40;99.90;;;;;;5074920;28;20088;-84
2022/03/25 02:40:04;;;;;;;92.00;21.23;;;3.40;99.90;;;;;;5073372;28;20051;-84
2022/03/25 02:42:29;;;;;;;142.02;26.50;;;3.30;99.90;;;;;;5075680;28;20500;-84
2022/03/25 02:44:55;;;;;;;172.65;27.65;;;3.30;99.90;;;;;;5085379;28;20071;-84
2022/03/25 02:47:21;;;;;;;133.68;25.73;;;3.20;99.90;;;;;;5084478;28;20050;-82
2022/03/25 02:49:51;;;;;;;121.78;26.73;;;3.20;99.90;;;;;;5055210;28;20049;-84
2022/03/25 02:52:17;;;;;;;119.57;23.50;;;3.40;99.90;;;;;;5076955;28;20103;-84
2022/03/25 02:54:42;;;;;;;88.35;19.38;;;3.00;99.90;;;;;;5054555;28;20060;-84
2022/03/25 02:57:08;;;;;;;89.60;20.03;;;3.50;99.90;;;;;;5084180;28;20128;-83
2022/03/25 02:59:34;;;;;;;85.90;18.77;;;3.60;99.90;;;;;;5072071;28;20037;-83
2022/03/25 03:01:59;;;;;;;86.60;21.95;;;2.80;99.90;;;;;;5055308;28;20052;-84
2022/03/25 03:04:27;;;;;;;60.70;18.77;;;2.80;99.90;;;;;;5078604;28;20044;-83
2022/03/25 03:06:53;;;;;;;57.13;17.65;;;2.80;99.90;;;;;;5071272;28;20580;-83
2022/03/25 03:09:19;;;;;;;43.63;16.67;;;2.70;99.90;;;;;;5084686;28;20048;-84
2022/03/25 03:11:44;;;;;;;56.60;17.38;;;2.70;99.90;;;;;;5070446;28;20098;-83
2022/03/25 03:14:10;;;;;;;61.70;15.55;;;2.80;99.90;;;;;;5035124;28;20109;-83
2022/03/25 03:16:36;;;;;;;44.07;15.20;;;2.70;99.90;;;;;;5079492;28;20051;-83
2022/03/25 03:19:02;;;;;;;65.70;18.00;;;3.00;99.90;;;;;;5088931;28;20045;-84
2022/03/25 03:21:29;;;;;;;78.15;20.25;;;2.70;99.90;;;;;;5071557;28;20049;-83
2022/03/25 03:23:55;;;;;;;;;;;3.30;99.90;;;;;;5055959;28;20097;-83
2022/03/25 03:26:21;;;;;;;65.82;17.13;;;2.70;99.90;;;;;;5069498;28;20445;-84
2022/03/25 03:28:47;;;;;;;112.43;22.67;;;2.70;99.90;;;;;;5078380;28;20044;-83
2022/03/25 03:31:13;;;;;;;112.57;23.63;;;2.70;99.90;;;;;;5072530;28;20072;-83
2022/03/25 03:33:38;;;;;;;111.73;21.57;;;2.60;99.90;;;;;;5055196;28;20082;-84
2022/03/25 03:36:04;;;;;;;87.15;20.95;;;2.70;99.90;;;;;;5070920;28;20134;-83
2022/03/25 03:38:30;;;;;;;146.05;24.83;;;2.50;99.90;;;;;;5071959;28;20040;-83
2022/03/25 03:40:56;;;;;;;100.50;18.70;;;2.70;99.90;;;;;;5081379;28;21684;-83
2022/03/25 03:43:23;;;;;;;86.10;18.42;;;3.20;99.90;;;;;;5071380;28;20044;-83
2022/03/25 03:45:48;;;;;;;137.20;20.63;;;2.30;99.90;;;;;;5070336;28;20053;-83
2022/03/25 03:48:14;;;;;;;129.80;23.38;;;2.30;99.90;;;;;;5038788;28;20117;-83
2022/03/25 03:50:40;;;;;;;215.33;28.47;;;2.20;99.90;;;;;;5075241;28;20040;-84
2022/03/25 03:53:07;;;;;;;171.85;26.17;;;2.20;99.90;;;;;;5074551;28;20055;-83
2022/03/25 03:55:32;;;;;;;112.20;21.15;;;2.80;99.90;;;;;;5082098;28;20036;-83
2022/03/25 03:57:58;;;;;;;96.15;18.58;;;2.10;99.90;;;;;;5070502;28;20310;-83
2022/03/25 04:00:24;;;;;;;78.50;18.38;;;2.10;99.90;;;;;;5082167;28;20494;-83
2022/03/25 04:02:51;;;;;;;78.95;18.10;;;2.80;99.90;;;;;;5070992;28;20048;-83
2022/03/25 04:05:16;;;;;;;65.38;15.43;;;2.10;99.90;;;;;;5054018;28;20051;-84
2022/03/25 04:07:47;;;;;;;69.35;16.45;;;2.00;99.90;;;;;;5077849;28;20052;-84
2022/03/25 04:10:18;;;;;;;54.72;15.57;;;2.00;99.90;;;;;;5080805;28;20451;-83
2022/03/25 04:12:43;;;;;;;43.65;14.98;;;2.00;99.90;;;;;;5088936;28;20051;-84
2022/03/25 04:15:11;;;;;;;34.28;13.43;;;2.00;99.90;;;;;;5038380;28;20083;-83
2022/03/25 04:17:38;;;;;;;45.05;16.30;;;2.10;99.90;;;;;;5069240;28;20055;-83
2022/03/25 04:20:05;;;;;;;38.70;15.02;;;2.10;99.90;;;;;;5075650;28;20504;-83
2022/03/25 04:22:31;;;;;;;45.38;14.70;;;2.10;99.90;;;;;;5055099;28;20088;-82
2022/03/25 04:24:56;;;;;;;83.35;16.98;;;2.10;99.90;;;;;;5071403;28;20060;-83
2022/03/25 04:27:23;;;;;;;44.25;13.73;;;2.20;99.90;;;;;;5070737;28;20437;-83
2022/03/25 04:29:49;;;;;;;35.95;13.98;;;2.00;99.90;;;;;;5071041;28;20403;-83
2022/03/25 04:32:14;;;;;;;51.15;15.18;;;2.00;99.90;;;;;;5073541;28;20041;-83
2022/03/25 04:34:40;;;;;;;58.05;16.02;;;2.00;99.90;;;;;;5081268;28;20117;-83
2022/03/25 04:37:07;;;;;;;78.97;15.80;;;1.90;99.90;;;;;;5072195;28;20044;-83
2022/03/25 04:39:32;;;;;;;55.55;13.95;;;1.80;99.90;;;;;;5078866;28;20406;-81
2022/03/25 04:41:58;;;;;;;39.15;13.52;;;1.70;99.90;;;;;;5070538;28;20051;-83
2022/03/25 04:44:24;;;;;;;43.30;13.55;;;1.70;99.90;;;;;;5072668;28;20347;-84
2022/03/25 04:46:50;;;;;;;51.85;12.10;;;1.60;99.90;;;;;;5053159;28;20499;-83
2022/03/25 04:49:15;;;;;;;43.25;12.27;;;1.60;99.90;;;;;;5081370;28;20059;-84
2022/03/25 04:51:41;;;;;;;29.85;12.02;;;1.60;99.90;;;;;;5070428;28;20075;-83
2022/03/25 04:54:07;;;;;;;24.35;11.82;;;1.70;99.90;;;;;;5081305;28;20040;-83
2022/03/25 04:56:34;;;;;;;29.30;11.70;;;1.60;99.90;;;;;;5073629;28;20053;-84
2022/03/25 04:59:00;;;;;;;41.90;13.73;;;1.80;99.90;;;;;;5073569;28;20186;-83
2022/03/25 05:01:26;;;;;;;38.80;11.25;;;1.60;99.90;;;;;;5040722;28;20132;-84
2022/03/25 05:03:52;;;;;;;35.83;12.93;;;1.50;99.90;;;;;;5091582;28;20044;-84
2022/03/25 05:06:18;;;;;;;36.88;13.52;;;1.50;99.90;;;;;;5091742;28;20054;-82
2022/03/25 05:08:43;;;;;;;25.85;10.55;;;1.80;99.90;;;;;;5088821;28;20073;-83
2022/03/25 05:11:09;;;;;;;15.40;9.60;;;2.40;99.90;;;;;;5059242;28;20487;-83
2022/03/25 05:13:35;;;;;;;29.00;10.90;;;1.70;99.90;;;;;;5091419;28;20072;-84
2022/03/25 05:16:01;;;;;;;33.17;10.35;;;1.50;99.90;;;;;;5063703;28;20509;-83
2022/03/25 05:18:27;;;;;;;25.75;9.85;;;1.50;99.90;;;;;;5037401;28;20137;-84
2022/03/25 05:20:54;;;;;;;27.58;9.85;;;1.50;99.90;;;;;;5082437;28;20049;-83
2022/03/25 05:23:19;;;;;;;;;;;1.40;99.90;;;;;;5093829;28;20453;-84
2022/03/25 05:25:45;;;;;;;19.80;7.80;;;1.40;99.90;;;;;;5083713;28;19962;-83
2022/03/25 05:28:12;;;;;;;21.45;9.27;;;1.70;99.90;;;;;;5078123;28;20048;-84
2022/03/25 05:30:38;;;;;;;15.43;8.23;;;1.90;99.90;;;;;;5085980;28;20080;-83
2022/03/25 05:33:04;;;;;;;19.77;9.23;;;1.30;99.90;;;;;;5075602;28;20110;-84
2022/03/25 05:35:30;;;;;;;20.67;10.20;;;1.30;99.90;;;;;;5074631;28;20121;-84
2022/03/25 05:37:56;;;;;;;19.35;8.55;;;1.30;99.90;;;;;;5076755;28;20467;-84
2022/03/25 05:40:23;;;;;;;12.67;7.03;;;1.30;99.90;;;;;;5056747;28;20044;-84
2022/03/25 05:42:49;;;;;;;;;;;1.30;99.90;;;;;;5078281;28;20070;-83
2022/03/25 05:45:19;;;;;;;14.07;7.78;;;1.70;99.90;;;;;;5082504;28;19932;-84
2022/03/25 05:47:44;;;;;;;14.55;8.75;;;1.30;99.90;;;;;;5076178;28;20046;-83
2022/03/25 05:50:14;;;;;;;15.73;8.13;;;2.10;99.90;;;;;;5081968;28;20048;-83
2022/03/25 05:52:41;;;;;;;15.38;10.23;;;1.40;99.90;;;;;;5064691;28;20055;-84
2022/03/25 05:55:07;;;;;;;16.10;9.98;;;1.40;99.90;;;;;;5093229;28;20055;-84
2022/03/25 05:57:34;;;;;;;12.27;9.10;;;1.50;99.90;;;;;;5056979;28;20051;-83
2022/03/25 06:00:00;;;;;;;16.40;10.65;;;2.70;99.90;;;;;;5067825;28;20051;-82
2022/03/25 06:02:27;;;;;;;18.27;10.30;;;2.20;99.90;;;;;;5073970;28;20086;-83
2022/03/25 06:04:53;;;;;;;13.98;9.85;;;2.60;99.90;;;;;;5072691;28;20052;-83
2022/03/25 06:07:19;;;;;;;18.23;9.33;;;1.70;99.90;;;;;;5073759;28;20077;-85
2022/03/25 06:09:45;;;;;;;15.18;8.93;;;1.70;99.90;;;;;;5072959;28;20445;-83
2022/03/25 06:12:11;;;;;;;17.42;9.02;;;2.00;99.90;;;;;;5088718;28;20048;-83
2022/03/25 06:14:38;;;;;;;16.15;9.73;;;1.90;99.90;;;;;;5071993;28;20386;-83
2022/03/25 06:17:04;;;;;;;17.58;10.52;;;2.00;99.90;;;;;;5078452;28;20827;-84
2022/03/25 06:19:30;;;;;;;17.55;9.82;;;2.70;99.90;;;;;;5067963;28;20048;-84
2022/03/25 06:21:56;;;;;;;21.17;11.07;;;2.20;99.90;;;;;;5043930;28;20037;-84
2022/03/25 06:24:22;;;;;;;18.58;10.10;;;2.50;99.90;;;;;;5056239;28;20055;-83
2022/03/25 06:26:48;;;;;;;14.98;9.93;;;2.70;99.90;;;;;;5073898;28;20048;-85
2022/03/25 06:29:13;;;;;;;23.20;10.85;;;2.90;99.90;;;;;;5085040;28;20040;-82
2022/03/25 06:31:39;;;;;;;15.52;11.07;;;3.10;99.90;;;;;;5089848;28;20044;-82
2022/03/25 06:34:05;;;;;;;21.15;11.40;;;3.40;99.90;;;;;;5078348;28;20097;-81
2022/03/25 06:36:31;;;;;;;19.23;11.40;;;3.60;99.90;;;;;;5081633;28;20076;-84
2022/03/25 06:38:57;;;;;;;17.42;11.27;;;3.70;99.90;;;;;;5076754;28;20052;-84
2022/03/25 06:41:23;;;;;;;21.57;13.03;;;4.20;99.90;;;;;;5059590;28;20041;-86
2022/03/25 06:43:49;;;;;;;22.17;12.73;;;4.00;99.90;;;;;;5075924;28;20037;-81
2022/03/25 06:46:17;;;;;;;18.92;10.98;;;4.10;99.90;;;;;;5078504;28;20039;-83
2022/03/25 06:48:43;;;;;;;23.17;11.95;;;4.20;99.90;;;;;;5075659;28;20049;-83
2022/03/25 06:51:09;;;;;;;18.05;12.27;;;4.30;99.90;;;;;;5078010;28;20048;-83
2022/03/25 06:53:35;;;;;;;20.65;11.45;;;4.50;99.90;;;;;;5086841;28;20048;-83
2022/03/25 06:56:01;;;;;;;16.80;13.32;;;4.60;99.90;;;;;;5056895;28;20045;-82
2022/03/25 06:58:27;;;;;;;25.27;14.40;;;4.80;99.90;;;;;;5086111;28;20066;-82
2022/03/25 07:00:53;;;;;;;18.42;12.13;;;5.00;99.90;;;;;;5080585;28;20406;-82
2022/03/25 07:03:19;;;;;;;24.70;13.70;;;5.10;99.90;;;;;;5077138;28;20148;-85
2022/03/25 07:05:45;;;;;;;24.37;13.07;;;5.50;99.90;;;;;;5084037;28;20051;-83
2022/03/25 07:08:12;;;;;;;20.90;13.50;;;5.70;99.90;;;;;;5073896;28;20044;-85
2022/03/25 07:10:38;;;;;;;23.65;13.38;;;5.90;99.90;;;;;;5072715;28;20032;-83
2022/03/25 07:13:05;;;;;;;19.88;11.88;;;6.10;99.90;;;;;;5075098;28;20491;-83
2022/03/25 07:15:30;;;;;;;20.42;13.60;;;6.40;99.90;;;;;;5042216;28;20142;-83
2022/03/25 07:17:58;;;;;;;19.67;14.20;;;7.10;99.90;;;;;;5054756;28;20151;-83
2022/03/25 07:20:26;;;;;;;22.23;13.07;;;6.90;99.90;;;;;;5056525;28;20040;-83
2022/03/25 07:22:53;;;;;;;22.83;12.73;;;7.10;99.90;;;;;;5073991;28;20133;-85
2022/03/25 07:25:19;;;;;;;21.95;13.60;;;7.30;99.90;;;;;;5055592;28;20047;-86
2022/03/25 07:27:48;;;;;;;25.92;14.55;;;7.50;99.90;;;;;;5104955;28;20044;-84
2022/03/25 07:30:16;;;;;;;25.48;15.77;;;7.70;99.90;;;;;;5077557;28;20094;-84
2022/03/25 07:32:43;;;;;;;28.77;15.50;;;7.90;99.90;;;;;;5091859;28;20479;-84
2022/03/25 07:35:10;;;;;;;29.48;14.55;;;8.10;99.90;;;;;;5084414;28;20082;-85
2022/03/25 07:37:40;;;;;;;26.30;14.65;;;8.30;99.90;;;;;;5038316;28;20550;-84
2022/03/25 07:40:09;;;;;;;23.48;15.35;;;8.50;99.90;;;;;;5076536;28;20498;-85
2022/03/25 07:42:37;;;;;;;25.48;15.10;;;8.60;99.90;;;;;;5078575;28;20142;-85
2022/03/25 07:45:04;;;;;;;28.52;15.43;;;8.80;99.90;;;;;;5055180;28;20054;-84
2022/03/25 07:47:32;;;;;;;28.80;15.70;;;9.00;99.90;;;;;;5070949;28;20418;-85
2022/03/25 07:50:01;;;;;;;26.27;16.58;;;9.10;99.90;;;;;;5072041;28;20398;-84
2022/03/25 07:52:26;;;;;;;27.73;15.07;;;9.30;99.90;;;;;;5071309;28;20078;-84
2022/03/25 07:54:52;;;;;;;23.10;13.43;;;9.50;99.90;;;;;;5086953;28;20049;-86
2022/03/25 07:57:18;;;;;;;28.90;15.90;;;9.60;99.90;;;;;;5070679;28;20088;-84
2022/03/25 07:59:44;;;;;;;23.60;13.63;;;9.80;99.90;;;;;;5070732;28;20055;-84
2022/03/25 08:02:11;;;;;;;21.63;13.37;;;10.00;99.90;;;;;;5073479;28;20125;-84
2022/03/25 08:04:37;;;;;;;24.15;14.43;;;10.30;99.90;;;;;;5072787;28;20074;-86
2022/03/25 08:07:03;;;;;;;24.33;14.23;;;10.70;99.90;;;;;;5063878;28;20037;-83
2022/03/25 08:09:29;;;;;;;21.20;13.55;;;10.90;99.90;;;;;;5054298;28;20076;-85
2022/03/25 08:11:55;;;;;;;19.10;13.82;;;11.30;99.90;;;;;;5070066;28;20087;-85
2022/03/25 08:14:22;;;;;;;21.13;14.13;;;11.60;99.90;;;;;;5088831;28;20044;-85
2022/03/25 08:16:50;;;;;;;23.52;14.43;;;12.00;99.90;;;;;;5056199;28;20099;-85
2022/03/25 08:19:16;;;;;;;22.23;13.75;;;12.20;99.90;;;;;;5071220;28;20036;-84
2022/03/25 08:21:42;;;;;;;23.90;14.37;;;12.40;99.90;;;;;;5037505;28;20125;-83
2022/03/25 08:29:36;;;;;;;23.48;12.48;;;12.90;99.90;;;;;;5059446;28;20044;-81
2022/03/25 08:32:03;;;;;;;22.20;14.02;;;13.30;99.90;;;;;;5082919;28;20052;-79
2022/03/25 08:34:28;;;;;;;21.85;13.38;;;13.40;99.90;;;;;;5084948;28;20052;-78
2022/03/25 08:36:54;;;;;;;28.05;15.13;;;13.60;99.90;;;;;;5095408;28;20044;-78
2022/03/25 08:39:22;;;;;;;24.25;12.65;;;13.50;99.90;;;;;;5092729;28;20437;-78
2022/03/25 08:41:48;;;;;;;22.35;12.38;;;13.60;99.90;;;;;;5074999;28;20048;-77
2022/03/25 08:44:14;;;;;;;20.80;12.97;;;13.50;99.90;;;;;;5072058;28;20506;-77
2022/03/25 08:46:40;;;;;;;19.50;13.38;;;13.70;99.90;;;;;;5074181;28;20800;-79
2022/03/25 08:49:06;;;;;;;;;;;13.70;99.90;;;;;;5074704;28;20045;-80
2022/03/25 08:51:32;;;;;;;18.77;11.27;;;13.70;99.90;;;;;;5057722;28;19946;-79
2022/03/25 08:53:58;;;;;;;21.17;13.40;;;13.80;99.90;;;;;;5075566;28;20083;-79
2022/03/25 08:56:25;;;;;;;25.02;13.55;;;13.80;99.90;;;;;;5092057;28;20091;-79
2022/03/25 08:58:55;;;;;;;18.13;11.93;;;13.90;99.90;;;;;;5094945;28;20554;-78
2022/03/25 09:01:22;;;;;;;16.83;9.70;;;14.10;99.90;;;;;;5090033;28;20508;-79
2022/03/25 09:03:48;;;;;;;15.52;10.93;;;14.30;99.90;;;;;;5093899;28;20456;-79
2022/03/25 09:06:13;;;;;;;22.63;11.45;;;14.50;99.90;;;;;;5090743;28;20131;-79
2022/03/25 09:08:39;;;;;;;20.17;11.93;;;14.60;99.90;;;;;;5092266;28;20067;-79
2022/03/25 09:11:05;;;;;;;18.97;11.80;;;14.60;99.90;;;;;;5086962;28;20047;-79
2022/03/25 09:13:30;;;;;;;21.73;11.63;;;14.70;99.90;;;;;;5072131;28;20048;-79
2022/03/25 09:15:56;;;;;;;22.83;12.33;;;14.70;98.70;;;;;;5073836;28;20044;-78
2022/03/25 09:18:22;;;;;;;16.83;11.17;;;14.80;97.80;;;;;;5074286;28;20039;-86
2022/03/25 09:20:51;;;;;;;21.37;12.67;;;14.80;96.80;;;;;;5040891;28;20048;-87
2022/03/25 09:23:19;;;;;;;18.08;10.70;;;14.80;95.60;;;;;;5072811;28;20295;-88
2022/03/25 09:25:44;;;;;;;16.77;10.70;;;14.70;95.70;;;;;;5067854;28;20106;-86
2022/03/25 09:28:10;;;;;;;20.03;11.47;;;14.60;94.90;;;;;;5027764;28;20072;-89
2022/03/25 09:30:36;;;;;;;20.97;11.33;;;14.60;94.80;;;;;;5036125;28;20327;-86
2022/03/25 09:33:03;;;;;;;19.87;10.70;;;14.80;94.40;;;;;;5072625;28;20378;-89
2022/03/25 09:35:29;;;;;;;18.73;10.50;;;15.00;93.60;;;;;;5074174;28;20286;-85
2022/03/25 09:37:58;;;;;;;17.50;10.80;;;15.10;92.90;;;;;;5076676;28;20068;-86
2022/03/25 09:40:30;;;;;;;19.52;9.82;;;15.40;91.50;;;;;;5025962;28;20099;-87
2022/03/25 09:42:57;;;;;;;15.73;9.40;;;15.90;90.20;;;;;;5047608;28;20562;-84
2022/03/25 09:45:30;;;;;;;17.05;8.90;;;15.90;89.50;;;;;;5083403;28;20040;-85
2022/03/25 09:47:58;;;;;;;14.38;9.82;;;16.20;82.50;;;;;;5081966;28;20058;-90
2022/03/25 09:50:26;;;;;;;13.97;9.17;;;16.40;84.00;;;;;;5062592;28;20123;-90
2022/03/25 09:52:53;;;;;;;12.77;9.30;;;16.50;81.60;;;;;;5080133;28;20293;-90
2022/03/25 09:55:21;;;;;;;;;;;16.60;79.80;;;;;;5078397;28;20078;-91
2022/03/25 09:57:50;;;;;;;16.58;9.20;;;16.60;73.40;;;;;;5077536;28;19999;-89
2022/03/25 10:00:18;;;;;;;13.45;8.98;;;16.60;78.50;;;;;;5064892;28;20121;-91
2022/03/25 10:02:45;;;;;;;19.85;9.15;;;16.50;76.40;;;;;;5097261;28;20036;-90
2022/03/25 10:05:15;;;;;;;;;;;16.60;76.10;;;;;;5078574;28;20044;-91
2022/03/25 10:07:45;;;;;;;14.20;8.25;;;16.80;72.00;;;;;;5059121;28;19929;-89
2022/03/25 10:10:22;;;;;;;14.93;9.68;;;16.90;74.20;;;;;;5082403;28;20040;-88
2022/03/25 10:13:02;;;;;;;12.30;9.05;;;17.10;72.70;;;;;;5080625;28;20049;-88
2022/03/25 10:15:37;;;;;;;14.00;8.32;;;17.30;71.80;;;;;;5079627;28;20506;-88
2022/03/25 10:18:09;;;;;;;15.10;8.50;;;17.50;70.40;;;;;;5079189;28;20043;-87
2022/03/25 10:21:05;;;;;;;14.57;8.30;;;17.60;67.60;;;;;;5071962;28;20502;-89
2022/03/25 10:23:46;;;;;;;11.50;7.88;;;17.70;65.60;;;;;;5084597;28;20125;-89
2022/03/25 10:26:35;;;;;;;16.63;8.43;;;17.60;66.20;;;;;;5078475;28;20111;-90
2022/03/25 10:29:03;;;;;;;15.23;8.07;;;17.60;66.10;;;;;;5060797;28;20380;-89
2022/03/25 10:31:40;;;;;;;18.85;9.10;;;17.70;67.40;;;;;;5059397;28;20127;-89
2022/03/25 10:34:18;;;;;;;14.90;8.13;;;17.80;66.90;;;;;;5084481;28;20141;-88
2022/03/25 10:37:02;;;;;;;18.98;8.95;;;17.90;64.80;;;;;;5078447;28;20131;-86
2022/03/25 10:39:32;;;;;;;19.88;8.48;;;17.70;62.50;;;;;;5059714;28;20036;-88
2022/03/25 10:42:06;;;;;;;15.07;9.68;;;17.70;65.20;;;;;;5059775;28;20288;-84
2022/03/25 10:44:44;;;;;;;16.25;8.73;;;18.30;65.00;;;;;;5064809;28;20056;-86
2022/03/25 10:47:16;;;;;;;15.00;9.40;;;17.90;62.30;;;;;;5061558;28;20513;-86
2022/03/25 10:49:47;;;;;;;19.65;8.55;;;18.20;63.30;;;;;;5071387;28;20293;-86
2022/03/25 10:52:35;;;;;;;16.17;7.95;;;18.40;64.10;;;;;;5055109;28;20048;-86
2022/03/25 10:55:25;;;;;;;14.88;8.30;;;18.50;60.10;;;;;;5055604;28;20093;-85
2022/03/25 10:57:55;;;;;;;11.35;6.88;;;18.60;60.20;;;;;;5054346;28;20053;-86
2022/03/25 11:00:23;;;;;;;15.02;8.50;;;18.40;61.40;;;;;;5072392;28;20056;-86
2022/03/25 11:02:53;;;;;;;13.73;8.65;;;18.40;62.40;;;;;;5071300;28;20044;-86
2022/03/25 11:05:19;;;;;;;12.25;8.00;;;18.50;61.30;;;;;;5038712;28;20087;-86
2022/03/25 11:07:47;;;;;;;15.38;9.40;;;18.40;62.40;;;;;;5070853;28;20846;-86
2022/03/25 11:10:15;;;;;;;15.35;8.80;;;18.60;61.90;;;;;;5071628;28;20063;-86
2022/03/25 11:12:53;;;;;;;12.43;7.55;;;18.70;61.20;;;;;;5070495;28;20157;-88
2022/03/25 11:15:21;;;;;;;15.13;8.07;;;19.00;58.20;;;;;;5072746;28;20044;-85
2022/03/25 11:17:47;;;;;;;12.93;8.15;;;18.80;59.80;;;;;;5054412;28;20854;-85
2022/03/25 11:20:15;;;;;;;12.68;9.48;;;18.80;59.80;;;;;;5033984;28;20049;-86
2022/03/25 11:22:51;;;;;;;15.43;8.57;;;18.60;59.50;;;;;;5068590;28;20513;-86
2022/03/25 11:25:23;;;;;;;15.77;7.80;;;18.70;58.30;;;;;;5054651;28;20052;-87
2022/03/25 11:28:01;;;;;;;19.38;8.75;;;18.80;59.20;;;;;;5071008;28;20052;-86
2022/03/25 11:30:35;;;;;;;21.52;9.93;;;19.30;58.20;;;;;;5059455;28;20087;-89
2022/03/25 11:33:04;;;;;;;15.20;9.55;;;19.60;57.10;;;;;;5082973;28;20050;-83
2022/03/25 11:35:35;;;;;;;15.23;8.82;;;19.70;57.90;;;;;;5071383;28;20380;-86
2022/03/25 11:38:13;;;;;;;14.07;8.82;;;19.50;56.80;;;;;;5055294;28;20102;-85
2022/03/25 11:40:42;;;;;;;10.93;7.45;;;19.40;56.80;;;;;;5059287;28;20043;-86
2022/03/25 11:43:21;;;;;;;17.48;8.98;;;19.50;57.10;;;;;;5055000;28;20048;-86
2022/03/25 11:45:59;;;;;;;19.33;8.32;;;20.00;55.90;;;;;;5068199;28;20047;-87
2022/03/25 11:48:36;;;;;;;15.13;9.10;;;20.00;56.10;;;;;;5054494;28;20040;-90
2022/03/25 11:51:25;;;;;;;16.13;9.57;;;19.80;55.50;;;;;;5050689;28;20106;-89
2022/03/25 11:53:53;;;;;;;16.27;8.45;;;19.60;56.80;;;;;;5070102;28;20131;-89
2022/03/25 11:56:28;;;;;;;18.27;9.80;;;19.50;57.30;;;;;;5054384;28;20040;-87
2022/03/25 11:58:54;;;;;;;13.82;8.40;;;19.40;57.40;;;;;;5071977;28;20302;-88
2022/03/25 12:01:20;;;;;;;14.77;8.75;;;19.30;57.20;;;;;;5061881;28;20498;-88
2022/03/25 12:03:54;;;;;;;14.25;8.15;;;19.10;56.80;;;;;;5035262;28;20110;-88
2022/03/25 12:06:25;;;;;;;12.18;8.35;;;19.50;57.00;;;;;;5052352;28;20132;-88
2022/03/25 12:09:18;;;;;;;17.05;7.90;;;18.90;56.60;;;;;;5035583;28;20057;-89
2022/03/25 12:11:51;;;;;;;9.77;7.45;;;19.20;55.30;;;;;;5071842;28;20048;-89
2022/03/25 12:14:21;;;;;;;17.13;8.57;;;19.40;55.50;;;;;;5073944;28;20085;-89
2022/03/25 12:17:22;;;;;;;10.90;6.85;;;19.90;55.70;;;;;;5035700;28;20052;-88
2022/03/25 12:19:51;;;;;;;9.75;6.22;;;20.20;54.00;;;;;;5036152;28;20040;-89
2022/03/25 12:22:20;;;;;;;15.43;8.35;;;20.40;54.00;;;;;;5091302;28;20140;-87
2022/03/25 12:24:50;;;;;;;14.18;6.72;;;20.40;53.10;;;;;;5068393;28;20071;-88
2022/03/25 12:27:17;;;;;;;10.60;7.30;;;20.50;53.90;;;;;;5054197;28;20099;-91
2022/03/25 12:29:48;;;;;;;14.32;7.63;;;20.60;53.00;;;;;;5066605;28;20040;-92
2022/03/25 12:32:16;;;;;;;12.07;7.55;;;20.50;52.70;;;;;;5059206;28;20052;-90
2022/03/25 12:35:02;;;;;;;16.23;7.72;;;20.50;52.70;;;;;;5054690;28;20045;-92
2022/03/25 12:37:43;;;;;;;10.40;7.03;;;20.70;53.00;;;;;;5054414;28;20502;-87
2022/03/25 12:40:17;;;;;;;10.93;6.88;;;20.70;52.00;;;;;;5055790;28;20036;-91
2022/03/25 12:42:44;;;;;;;14.30;8.05;;;19.90;52.20;;;;;;5053935;28;20084;-91
2022/03/25 12:45:10;;;;;;;11.60;7.68;;;20.50;52.50;;;;;;5054061;28;20058;-91
2022/03/25 12:47:38;;;;;;;13.38;7.00;;;20.70;52.60;;;;;;5070436;28;20045;-89